sensor_id;sensor_type;location;lat;lon;timestamp;P1;durP1;ratioP1;P2;durP2;ratioP2
36833;SDS011;48003;52.084;5.224;2022-08-11T00:00:21;4.2;;;2.4;;
36833;SDS011;48003;52.084;5.224;2022-08-11T00:02:24;6.8;;;2.21;;
36833;SDS011;48003;52.084;5.224;2022-08-11T00:04:14;9.1;;;2.6;;
36833;SDS011;48003;52.084;5.224;2022-08-11T00:06:03;5.0;;;2.4;;
36833;SDS011;48003;52.084;5.224;2022-08-11T00:07:51;5.6;;;2.4;;
36833;SDS011;48003;52.084;5.224;2022-08-11T00:09:39;5.8;;;2.4;;
36833;SDS011;48003;52.084;5.224;2022-08-11T00:11:30;4.7;;;2.21;;
36833;SDS011;48003;52.084;5.224;2022-08-11T00:13:30;6.4;;;2.4;;
36833;SDS011;48003;52.084;5.224;2022-08-11T00:17:08;4.8;;;2.21;;
36833;SDS011;48003;52.084;5.224;2022-08-11T00:18:59;3.5;;;2.1;;
36833;SDS011;48003;52.084;5.224;2022-08-11T00:20:48;4.2;;;2.21;;
36833;SDS011;48003;52.084;5.224;2022-08-11T00:22:37;4.7;;;2.0;;
36833;SDS011;48003;52.084;5.224;2022-08-11T00:24:31;5.11;;;2.21;;
36833;SDS011;48003;52.084;5.224;2022-08-11T00:26:20;5.7;;;2.21;;
36833;SDS011;48003;52.084;5.224;2022-08-11T00:28:24;3.3;;;1.8;;
36833;SDS011;48003;52.084;5.224;2022-08-11T00:30:13;6.4;;;2.31;;
36833;SDS011;48003;52.084;5.224;2022-08-11T00:33:51;3.5;;;2.0;;
36833;SDS011;48003;52.084;5.224;2022-08-11T00:35:38;4.2;;;2.31;;
36833;SDS011;48003;52.084;5.224;2022-08-11T00:37:25;6.7;;;2.1;;
36833;SDS011;48003;52.084;5.224;2022-08-11T00:39:12;5.4;;;1.9;;
36833;SDS011;48003;52.084;5.224;2022-08-11T00:41:14;4.0;;;1.9;;
36833;SDS011;48003;52.084;5.224;2022-08-11T00:43:10;5.8;;;2.1;;
36833;SDS011;48003;52.084;5.224;2022-08-11T00:45:26;3.7;;;1.8;;
36833;SDS011;48003;52.084;5.224;2022-08-11T00:47:20;5.0;;;1.7;;
36833;SDS011;48003;52.084;5.224;2022-08-11T00:49:23;4.0;;;2.0;;
36833;SDS011;48003;52.084;5.224;2022-08-11T00:51:29;3.4;;;1.9;;
36833;SDS011;48003;52.084;5.224;2022-08-11T00:53:35;3.8;;;2.0;;
36833;SDS011;48003;52.084;5.224;2022-08-11T00:55:41;5.4;;;2.21;;
36833;SDS011;48003;52.084;5.224;2022-08-11T00:59:24;5.3;;;2.21;;
36833;SDS011;48003;52.084;5.224;2022-08-11T01:02:14;3.8;;;1.9;;
36833;SDS011;48003;52.084;5.224;2022-08-11T01:06:53;3.2;;;1.8;;
36833;SDS011;48003;52.084;5.224;2022-08-11T01:09:29;3.4;;;2.1;;
36833;SDS011;48003;52.084;5.224;2022-08-11T01:12:20;5.4;;;2.1;;
36833;SDS011;48003;52.084;5.224;2022-08-11T01:16:27;4.1;;;1.9;;
36833;SDS011;48003;52.084;5.224;2022-08-11T01:19:45;4.2;;;2.21;;
36833;SDS011;48003;52.084;5.224;2022-08-11T01:24:35;5.11;;;2.31;;
36833;SDS011;48003;52.084;5.224;2022-08-11T01:25:40;5.11;;;2.31;;
36833;SDS011;48003;52.084;5.224;2022-08-11T01:27:31;4.91;;;1.9;;
36833;SDS011;48003;52.084;5.224;2022-08-11T01:29:05;4.91;;;1.9;;
36833;SDS011;48003;52.084;5.224;2022-08-11T01:30:36;3.9;;;2.1;;
36833;SDS011;48003;52.084;5.224;2022-08-11T01:32:32;2.6;;;1.8;;
36833;SDS011;48003;52.084;5.224;2022-08-11T01:34:02;4.61;;;2.21;;
36833;SDS011;48003;52.084;5.224;2022-08-11T01:35:29;5.3;;;2.0;;
36833;SDS011;48003;52.084;5.224;2022-08-11T01:37:44;4.91;;;2.1;;
36833;SDS011;48003;52.084;5.224;2022-08-11T01:40:34;3.6;;;2.0;;
36833;SDS011;48003;52.084;5.224;2022-08-11T01:41:26;3.8;;;2.1;;
36833;SDS011;48003;52.084;5.224;2022-08-11T01:45:01;3.7;;;2.1;;
36833;SDS011;48003;52.084;5.224;2022-08-11T01:47:55;6.1;;;2.21;;
36833;SDS011;48003;52.084;5.224;2022-08-11T01:49:54;5.4;;;2.4;;
36833;SDS011;48003;52.084;5.224;2022-08-11T01:51:59;4.3;;;2.21;;
36833;SDS011;48003;52.084;5.224;2022-08-11T01:53:56;4.5;;;2.0;;
36833;SDS011;48003;52.084;5.224;2022-08-11T01:55:51;4.41;;;2.1;;
36833;SDS011;48003;52.084;5.224;2022-08-11T01:59:48;3.6;;;2.21;;
36833;SDS011;48003;52.084;5.224;2022-08-11T02:01:47;3.8;;;2.4;;
36833;SDS011;48003;52.084;5.224;2022-08-11T02:04:03;2.9;;;2.1;;
36833;SDS011;48003;52.084;5.224;2022-08-11T02:06:54;6.6;;;2.31;;
36833;SDS011;48003;52.084;5.224;2022-08-11T02:08:51;3.7;;;2.4;;
36833;SDS011;48003;52.084;5.224;2022-08-11T02:11:51;4.3;;;2.5;;
36833;SDS011;48003;52.084;5.224;2022-08-11T02:13:56;6.1;;;2.6;;
36833;SDS011;48003;52.084;5.224;2022-08-11T02:15:54;6.0;;;2.6;;
36833;SDS011;48003;52.084;5.224;2022-08-11T02:17:58;4.61;;;2.5;;
36833;SDS011;48003;52.084;5.224;2022-08-11T02:24:02;4.3;;;2.7;;
36833;SDS011;48003;52.084;5.224;2022-08-11T02:26:01;4.3;;;2.7;;
36833;SDS011;48003;52.084;5.224;2022-08-11T02:27:54;4.2;;;2.8;;
36833;SDS011;48003;52.084;5.224;2022-08-11T02:29:51;5.4;;;2.8;;
36833;SDS011;48003;52.084;5.224;2022-08-11T02:34:58;5.8;;;3.0;;
36833;SDS011;48003;52.084;5.224;2022-08-11T02:37:00;6.7;;;3.1;;
36833;SDS011;48003;52.084;5.224;2022-08-11T02:38:59;5.9;;;2.8;;
36833;SDS011;48003;52.084;5.224;2022-08-11T02:40:56;5.5;;;2.7;;
36833;SDS011;48003;52.084;5.224;2022-08-11T02:42:51;6.2;;;2.8;;
36833;SDS011;48003;52.084;5.224;2022-08-11T02:44:50;5.0;;;2.7;;
36833;SDS011;48003;52.084;5.224;2022-08-11T02:46:56;5.3;;;3.0;;
36833;SDS011;48003;52.084;5.224;2022-08-11T02:49:57;4.61;;;2.9;;
36833;SDS011;48003;52.084;5.224;2022-08-11T02:52:02;5.4;;;3.2;;
36833;SDS011;48003;52.084;5.224;2022-08-11T02:53:56;4.7;;;3.1;;
36833;SDS011;48003;52.084;5.224;2022-08-11T02:55:58;4.41;;;3.3;;
36833;SDS011;48003;52.084;5.224;2022-08-11T02:57:54;5.2;;;3.3;;
36833;SDS011;48003;52.084;5.224;2022-08-11T02:59:50;4.91;;;3.1;;
36833;SDS011;48003;52.084;5.224;2022-08-11T03:01:43;5.2;;;3.2;;
36833;SDS011;48003;52.084;5.224;2022-08-11T03:03:43;6.1;;;3.3;;
36833;SDS011;48003;52.084;5.224;2022-08-11T03:05:57;5.6;;;3.5;;
36833;SDS011;48003;52.084;5.224;2022-08-11T03:08:02;6.5;;;3.1;;
36833;SDS011;48003;52.084;5.224;2022-08-11T03:10:09;7.0;;;3.3;;
36833;SDS011;48003;52.084;5.224;2022-08-11T03:18:14;5.0;;;3.4;;
36833;SDS011;48003;52.084;5.224;2022-08-11T03:20:18;3.8;;;3.0;;
36833;SDS011;48003;52.084;5.224;2022-08-11T03:22:22;6.0;;;3.2;;
36833;SDS011;48003;52.084;5.224;2022-08-11T03:24:17;5.0;;;3.4;;
36833;SDS011;48003;52.084;5.224;2022-08-11T03:26:12;5.6;;;3.6;;
36833;SDS011;48003;52.084;5.224;2022-08-11T03:28:20;5.11;;;3.3;;
36833;SDS011;48003;52.084;5.224;2022-08-11T03:30:15;5.11;;;3.3;;
36833;SDS011;48003;52.084;5.224;2022-08-11T03:32:06;5.11;;;3.4;;
36833;SDS011;48003;52.084;5.224;2022-08-11T03:36:02;4.1;;;3.3;;
36833;SDS011;48003;52.084;5.224;2022-08-11T03:38:06;4.61;;;3.3;;
36833;SDS011;48003;52.084;5.224;2022-08-11T03:39:58;6.6;;;3.4;;
36833;SDS011;48003;52.084;5.224;2022-08-11T03:42:00;6.0;;;3.5;;
36833;SDS011;48003;52.084;5.224;2022-08-11T03:44:19;5.4;;;3.6;;
36833;SDS011;48003;52.084;5.224;2022-08-11T03:46:33;5.3;;;3.7;;
36833;SDS011;48003;52.084;5.224;2022-08-11T03:48:43;5.6;;;3.3;;
36833;SDS011;48003;52.084;5.224;2022-08-11T03:53:08;6.8;;;3.9;;
36833;SDS011;48003;52.084;5.224;2022-08-11T03:55:07;5.11;;;3.7;;
36833;SDS011;48003;52.084;5.224;2022-08-11T04:02:04;5.5;;;3.8;;
36833;SDS011;48003;52.084;5.224;2022-08-11T04:04:11;6.1;;;3.5;;
36833;SDS011;48003;52.084;5.224;2022-08-11T04:07:41;4.7;;;3.5;;
36833;SDS011;48003;52.084;5.224;2022-08-11T04:12:01;7.3;;;4.91;;
36833;SDS011;48003;52.084;5.224;2022-08-11T04:16:41;7.7;;;4.1;;
36833;SDS011;48003;52.084;5.224;2022-08-11T04:19:55;5.2;;;3.7;;
36833;SDS011;48003;52.084;5.224;2022-08-11T04:21:35;5.4;;;3.8;;
36833;SDS011;48003;52.084;5.224;2022-08-11T04:24:03;5.4;;;3.8;;
36833;SDS011;48003;52.084;5.224;2022-08-11T04:24:27;7.1;;;4.1;;
36833;SDS011;48003;52.084;5.224;2022-08-11T04:26:51;6.8;;;4.1;;
36833;SDS011;48003;52.084;5.224;2022-08-11T04:29:09;6.4;;;3.8;;
36833;SDS011;48003;52.084;5.224;2022-08-11T04:31:15;6.1;;;4.0;;
36833;SDS011;48003;52.084;5.224;2022-08-11T04:33:42;6.9;;;4.2;;
36833;SDS011;48003;52.084;5.224;2022-08-11T04:35:51;5.4;;;3.8;;
36833;SDS011;48003;52.084;5.224;2022-08-11T04:37:56;6.1;;;4.41;;
36833;SDS011;48003;52.084;5.224;2022-08-11T04:41:14;5.7;;;4.1;;
36833;SDS011;48003;52.084;5.224;2022-08-11T04:45:34;6.8;;;4.1;;
36833;SDS011;48003;52.084;5.224;2022-08-11T05:02:05;9.4;;;4.91;;
36833;SDS011;48003;52.084;5.224;2022-08-11T05:08:39;6.8;;;4.7;;
36833;SDS011;48003;52.084;5.224;2022-08-11T05:12:21;6.7;;;4.61;;
36833;SDS011;48003;52.084;5.224;2022-08-11T05:34:56;6.2;;;4.3;;
36833;SDS011;48003;52.084;5.224;2022-08-11T05:35:26;6.0;;;4.41;;
36833;SDS011;48003;52.084;5.224;2022-08-11T05:57:28;5.7;;;4.0;;
36833;SDS011;48003;52.084;5.224;2022-08-11T05:59:19;5.5;;;3.7;;
36833;SDS011;48003;52.084;5.224;2022-08-11T06:01:08;6.4;;;3.9;;
36833;SDS011;48003;52.084;5.224;2022-08-11T06:03:00;6.3;;;4.0;;
36833;SDS011;48003;52.084;5.224;2022-08-11T06:04:52;8.1;;;3.8;;
36833;SDS011;48003;52.084;5.224;2022-08-11T06:08:43;6.5;;;4.0;;
36833;SDS011;48003;52.084;5.224;2022-08-11T06:10:33;7.9;;;4.0;;
36833;SDS011;48003;52.084;5.224;2022-08-11T06:12:22;4.61;;;3.5;;
36833;SDS011;48003;52.084;5.224;2022-08-11T06:14:11;8.0;;;4.1;;
36833;SDS011;48003;52.084;5.224;2022-08-11T06:16:00;6.2;;;4.0;;
36833;SDS011;48003;52.084;5.224;2022-08-11T06:17:47;6.7;;;3.8;;
36833;SDS011;48003;52.084;5.224;2022-08-11T06:19:35;5.11;;;3.3;;
36833;SDS011;48003;52.084;5.224;2022-08-11T06:21:27;7.0;;;4.1;;
36833;SDS011;48003;52.084;5.224;2022-08-11T06:25:05;6.1;;;4.0;;
36833;SDS011;48003;52.084;5.224;2022-08-11T06:26:54;10.1;;;4.8;;
36833;SDS011;48003;52.084;5.224;2022-08-11T06:28:44;7.6;;;4.7;;
36833;SDS011;48003;52.084;5.224;2022-08-11T06:30:33;5.5;;;3.5;;
36833;SDS011;48003;52.084;5.224;2022-08-11T06:32:23;6.8;;;3.6;;
36833;SDS011;48003;52.084;5.224;2022-08-11T06:34:14;6.6;;;2.9;;
36833;SDS011;48003;52.084;5.224;2022-08-11T06:36:20;4.5;;;3.2;;
36833;SDS011;48003;52.084;5.224;2022-08-11T06:38:23;6.8;;;3.2;;
36833;SDS011;48003;52.084;5.224;2022-08-11T06:40:25;5.2;;;3.3;;
36833;SDS011;48003;52.084;5.224;2022-08-11T06:42:30;6.2;;;3.3;;
36833;SDS011;48003;52.084;5.224;2022-08-11T06:46:16;5.11;;;2.9;;
36833;SDS011;48003;52.084;5.224;2022-08-11T06:48:14;5.9;;;3.6;;
36833;SDS011;48003;52.084;5.224;2022-08-11T06:53:04;4.61;;;2.8;;
36833;SDS011;48003;52.084;5.224;2022-08-11T07:00:29;6.3;;;3.2;;
36833;SDS011;48003;52.084;5.224;2022-08-11T07:02:22;5.7;;;3.3;;
36833;SDS011;48003;52.084;5.224;2022-08-11T07:04:14;6.3;;;3.1;;
36833;SDS011;48003;52.084;5.224;2022-08-11T07:06:24;4.91;;;2.7;;
36833;SDS011;48003;52.084;5.224;2022-08-11T07:16:03;5.11;;;2.7;;
36833;SDS011;48003;52.084;5.224;2022-08-11T07:28:57;4.91;;;3.0;;
36833;SDS011;48003;52.084;5.224;2022-08-11T07:30:46;5.4;;;3.7;;
36833;SDS011;48003;52.084;5.224;2022-08-11T07:32:47;5.7;;;2.7;;
36833;SDS011;48003;52.084;5.224;2022-08-11T07:36:31;6.7;;;5.3;;
36833;SDS011;48003;52.084;5.224;2022-08-11T07:38:21;5.4;;;3.0;;
36833;SDS011;48003;52.084;5.224;2022-08-11T07:40:12;5.5;;;2.6;;
36833;SDS011;48003;52.084;5.224;2022-08-11T07:42:03;5.5;;;2.5;;
36833;SDS011;48003;52.084;5.224;2022-08-11T07:43:54;3.1;;;1.8;;
36833;SDS011;48003;52.084;5.224;2022-08-11T07:52:53;4.2;;;2.31;;
36833;SDS011;48003;52.084;5.224;2022-08-11T07:54:40;3.5;;;2.21;;
36833;SDS011;48003;52.084;5.224;2022-08-11T07:56:27;3.6;;;2.1;;
36833;SDS011;48003;52.084;5.224;2022-08-11T08:19:36;3.1;;;2.21;;
36833;SDS011;48003;52.084;5.224;2022-08-11T08:21:23;6.9;;;2.5;;
36833;SDS011;48003;52.084;5.224;2022-08-11T08:23:09;5.2;;;2.1;;
36833;SDS011;48003;52.084;5.224;2022-08-11T08:24:56;3.9;;;2.1;;
36833;SDS011;48003;52.084;5.224;2022-08-11T08:28:46;5.3;;;2.5;;
36833;SDS011;48003;52.084;5.224;2022-08-11T08:30:49;4.41;;;2.0;;
36833;SDS011;48003;52.084;5.224;2022-08-11T08:32:37;4.7;;;2.1;;
36833;SDS011;48003;52.084;5.224;2022-08-11T08:34:26;5.5;;;2.4;;
36833;SDS011;48003;52.084;5.224;2022-08-11T08:36:15;4.2;;;2.31;;
36833;SDS011;48003;52.084;5.224;2022-08-11T08:38:02;3.3;;;2.21;;
36833;SDS011;48003;52.084;5.224;2022-08-11T08:39:49;5.3;;;2.21;;
36833;SDS011;48003;52.084;5.224;2022-08-11T08:41:37;5.4;;;2.1;;
36833;SDS011;48003;52.084;5.224;2022-08-11T08:45:15;5.3;;;2.21;;
36833;SDS011;48003;52.084;5.224;2022-08-11T08:47:05;3.4;;;2.0;;
36833;SDS011;48003;52.084;5.224;2022-08-11T08:48:56;4.91;;;2.1;;
36833;SDS011;48003;52.084;5.224;2022-08-11T08:51:52;4.0;;;2.7;;
36833;SDS011;48003;52.084;5.224;2022-08-11T08:53:45;8.6;;;6.0;;
36833;SDS011;48003;52.084;5.224;2022-08-11T08:55:40;6.3;;;2.8;;
36833;SDS011;48003;52.084;5.224;2022-08-11T08:57:31;3.6;;;2.21;;
36833;SDS011;48003;52.084;5.224;2022-08-11T08:59:21;4.8;;;2.4;;
36833;SDS011;48003;52.084;5.224;2022-08-11T09:01:12;3.2;;;2.21;;
36833;SDS011;48003;52.084;5.224;2022-08-11T09:03:01;4.5;;;2.0;;
36833;SDS011;48003;52.084;5.224;2022-08-11T09:04:49;5.3;;;2.31;;
36833;SDS011;48003;52.084;5.224;2022-08-11T09:08:29;5.3;;;2.31;;
36833;SDS011;48003;52.084;5.224;2022-08-11T09:10:18;3.8;;;2.1;;
36833;SDS011;48003;52.084;5.224;2022-08-11T09:12:07;5.2;;;2.4;;
36833;SDS011;48003;52.084;5.224;2022-08-11T09:13:56;4.8;;;2.21;;
36833;SDS011;48003;52.084;5.224;2022-08-11T09:15:45;4.7;;;2.21;;
36833;SDS011;48003;52.084;5.224;2022-08-11T09:17:32;6.2;;;2.21;;
36833;SDS011;48003;52.084;5.224;2022-08-11T09:19:22;4.91;;;2.7;;
36833;SDS011;48003;52.084;5.224;2022-08-11T09:27:11;3.1;;;2.21;;
36833;SDS011;48003;52.084;5.224;2022-08-11T09:29:00;4.2;;;2.31;;
36833;SDS011;48003;52.084;5.224;2022-08-11T09:30:52;3.8;;;2.1;;
36833;SDS011;48003;52.084;5.224;2022-08-11T09:32:40;5.2;;;3.1;;
36833;SDS011;48003;52.084;5.224;2022-08-11T09:34:28;4.5;;;3.1;;
36833;SDS011;48003;52.084;5.224;2022-08-11T09:40:32;5.3;;;2.31;;
36833;SDS011;48003;52.084;5.224;2022-08-11T09:42:19;4.2;;;2.21;;
36833;SDS011;48003;52.084;5.224;2022-08-11T09:47:00;7.1;;;5.5;;
36833;SDS011;48003;52.084;5.224;2022-08-11T09:48:48;5.0;;;3.6;;
36833;SDS011;48003;52.084;5.224;2022-08-11T09:52:25;5.0;;;2.31;;
36833;SDS011;48003;52.084;5.224;2022-08-11T09:54:16;5.0;;;2.0;;
36833;SDS011;48003;52.084;5.224;2022-08-11T09:58:12;4.1;;;1.8;;
36833;SDS011;48003;52.084;5.224;2022-08-11T10:00:00;4.41;;;2.1;;
36833;SDS011;48003;52.084;5.224;2022-08-11T10:01:49;5.5;;;2.1;;
36833;SDS011;48003;52.084;5.224;2022-08-11T10:03:47;3.9;;;1.9;;
36833;SDS011;48003;52.084;5.224;2022-08-11T10:08:36;4.0;;;1.9;;
36833;SDS011;48003;52.084;5.224;2022-08-11T10:10:25;5.2;;;1.9;;
36833;SDS011;48003;52.084;5.224;2022-08-11T10:12:15;6.1;;;2.0;;
36833;SDS011;48003;52.084;5.224;2022-08-11T10:17:17;5.11;;;2.7;;
36833;SDS011;48003;52.084;5.224;2022-08-11T10:19:06;3.3;;;1.8;;
36833;SDS011;48003;52.084;5.224;2022-08-11T10:20:56;3.6;;;2.0;;
36833;SDS011;48003;52.084;5.224;2022-08-11T10:26:54;5.8;;;2.8;;
36833;SDS011;48003;52.084;5.224;2022-08-11T10:35:38;5.3;;;2.8;;
36833;SDS011;48003;52.084;5.224;2022-08-11T10:37:33;4.8;;;2.21;;
36833;SDS011;48003;52.084;5.224;2022-08-11T10:39:22;3.3;;;2.1;;
36833;SDS011;48003;52.084;5.224;2022-08-11T10:44:15;3.4;;;2.0;;
36833;SDS011;48003;52.084;5.224;2022-08-11T10:49:06;3.5;;;2.1;;
36833;SDS011;48003;52.084;5.224;2022-08-11T11:00:07;3.3;;;2.4;;
36833;SDS011;48003;52.084;5.224;2022-08-11T11:01:57;4.0;;;2.21;;
36833;SDS011;48003;52.084;5.224;2022-08-11T11:05:32;4.0;;;2.4;;
36833;SDS011;48003;52.084;5.224;2022-08-11T11:07:26;4.3;;;2.4;;
36833;SDS011;48003;52.084;5.224;2022-08-11T11:09:24;8.0;;;2.1;;
36833;SDS011;48003;52.084;5.224;2022-08-11T11:11:15;3.7;;;2.4;;
36833;SDS011;48003;52.084;5.224;2022-08-11T11:19:50;4.91;;;2.5;;
36833;SDS011;48003;52.084;5.224;2022-08-11T11:21:44;6.0;;;2.5;;
36833;SDS011;48003;52.084;5.224;2022-08-11T11:23:39;4.61;;;2.0;;
36833;SDS011;48003;52.084;5.224;2022-08-11T11:25:31;7.1;;;2.5;;
36833;SDS011;48003;52.084;5.224;2022-08-11T11:27:31;4.7;;;2.21;;
36833;SDS011;48003;52.084;5.224;2022-08-11T11:29:28;5.5;;;2.1;;
36833;SDS011;48003;52.084;5.224;2022-08-11T11:31:47;5.0;;;2.31;;
36833;SDS011;48003;52.084;5.224;2022-08-11T11:33:52;7.7;;;2.1;;
36833;SDS011;48003;52.084;5.224;2022-08-11T11:36:04;4.3;;;2.21;;
36833;SDS011;48003;52.084;5.224;2022-08-11T11:38:00;4.61;;;1.9;;
36833;SDS011;48003;52.084;5.224;2022-08-11T11:39:51;3.0;;;2.1;;
36833;SDS011;48003;52.084;5.224;2022-08-11T11:41:40;3.3;;;2.21;;
36833;SDS011;48003;52.084;5.224;2022-08-11T11:45:14;4.3;;;2.5;;
36833;SDS011;48003;52.084;5.224;2022-08-11T11:47:02;4.61;;;2.1;;
36833;SDS011;48003;52.084;5.224;2022-08-11T11:50:40;5.0;;;2.1;;
36833;SDS011;48003;52.084;5.224;2022-08-11T11:52:27;4.1;;;1.9;;
36833;SDS011;48003;52.084;5.224;2022-08-11T11:54:14;3.9;;;2.1;;
36833;SDS011;48003;52.084;5.224;2022-08-11T12:01:27;3.6;;;1.9;;
36833;SDS011;48003;52.084;5.224;2022-08-11T12:03:17;3.4;;;1.9;;
36833;SDS011;48003;52.084;5.224;2022-08-11T12:05:06;4.0;;;2.5;;
36833;SDS011;48003;52.084;5.224;2022-08-11T12:08:08;4.41;;;1.6;;
36833;SDS011;48003;52.084;5.224;2022-08-11T12:09:58;4.61;;;2.5;;
36833;SDS011;48003;52.084;5.224;2022-08-11T12:14:49;2.9;;;2.0;;
36833;SDS011;48003;52.084;5.224;2022-08-11T12:16:36;3.7;;;1.9;;
36833;SDS011;48003;52.084;5.224;2022-08-11T12:18:25;5.0;;;1.8;;
36833;SDS011;48003;52.084;5.224;2022-08-11T12:20:15;3.5;;;2.0;;
36833;SDS011;48003;52.084;5.224;2022-08-11T12:28:09;4.2;;;1.9;;
36833;SDS011;48003;52.084;5.224;2022-08-11T12:29:56;5.5;;;1.6;;
36833;SDS011;48003;52.084;5.224;2022-08-11T12:31:46;5.7;;;1.8;;
36833;SDS011;48003;52.084;5.224;2022-08-11T12:35:20;3.7;;;1.7;;
36833;SDS011;48003;52.084;5.224;2022-08-11T12:37:12;4.5;;;2.31;;
36833;SDS011;48003;52.084;5.224;2022-08-11T12:39:02;5.4;;;1.9;;
36833;SDS011;48003;52.084;5.224;2022-08-11T12:45:41;3.9;;;1.5;;
36833;SDS011;48003;52.084;5.224;2022-08-11T12:51:59;3.4;;;1.7;;
36833;SDS011;48003;52.084;5.224;2022-08-11T12:54:26;4.0;;;1.8;;
36833;SDS011;48003;52.084;5.224;2022-08-11T13:05:22;4.5;;;1.8;;
36833;SDS011;48003;52.084;5.224;2022-08-11T13:08:58;2.7;;;2.0;;
36833;SDS011;48003;52.084;5.224;2022-08-11T13:13:48;3.5;;;1.6;;
36833;SDS011;48003;52.084;5.224;2022-08-11T13:17:23;4.8;;;1.8;;
36833;SDS011;48003;52.084;5.224;2022-08-11T13:19:11;3.4;;;1.6;;
36833;SDS011;48003;52.084;5.224;2022-08-11T13:20:57;2.4;;;1.7;;
36833;SDS011;48003;52.084;5.224;2022-08-11T13:22:45;4.41;;;1.7;;
36833;SDS011;48003;52.084;5.224;2022-08-11T13:24:35;3.8;;;2.0;;
36833;SDS011;48003;52.084;5.224;2022-08-11T13:26:24;4.3;;;1.8;;
36833;SDS011;48003;52.084;5.224;2022-08-11T13:31:10;3.4;;;1.6;;
36833;SDS011;48003;52.084;5.224;2022-08-11T13:32:56;4.91;;;1.9;;
36833;SDS011;48003;52.084;5.224;2022-08-11T13:34:45;2.8;;;1.8;;
36833;SDS011;48003;52.084;5.224;2022-08-11T13:38:22;2.7;;;1.9;;
36833;SDS011;48003;52.084;5.224;2022-08-11T13:40:11;2.7;;;1.9;;
36833;SDS011;48003;52.084;5.224;2022-08-11T13:41:59;5.4;;;2.21;;
36833;SDS011;48003;52.084;5.224;2022-08-11T13:43:47;3.5;;;1.5;;
36833;SDS011;48003;52.084;5.224;2022-08-11T13:45:35;2.4;;;1.6;;
36833;SDS011;48003;52.084;5.224;2022-08-11T13:47:23;7.5;;;1.8;;
36833;SDS011;48003;52.084;5.224;2022-08-11T13:49:10;4.0;;;1.8;;
36833;SDS011;48003;52.084;5.224;2022-08-11T13:53:25;4.3;;;1.6;;
36833;SDS011;48003;52.084;5.224;2022-08-11T13:57:08;6.0;;;1.7;;
36833;SDS011;48003;52.084;5.224;2022-08-11T13:58:59;6.0;;;1.6;;
36833;SDS011;48003;52.084;5.224;2022-08-11T14:00:48;6.6;;;1.9;;
36833;SDS011;48003;52.084;5.224;2022-08-11T14:02:38;2.8;;;1.7;;
36833;SDS011;48003;52.084;5.224;2022-08-11T14:04:29;4.2;;;1.7;;
36833;SDS011;48003;52.084;5.224;2022-08-11T14:06:19;4.1;;;1.6;;
36833;SDS011;48003;52.084;5.224;2022-08-11T14:08:31;5.5;;;1.8;;
36833;SDS011;48003;52.084;5.224;2022-08-11T14:10:23;4.2;;;1.8;;
36833;SDS011;48003;52.084;5.224;2022-08-11T14:15:19;3.9;;;1.7;;
36833;SDS011;48003;52.084;5.224;2022-08-11T14:17:09;3.6;;;1.7;;
36833;SDS011;48003;52.084;5.224;2022-08-11T14:18:58;3.7;;;1.6;;
36833;SDS011;48003;52.084;5.224;2022-08-11T14:23:53;3.3;;;1.8;;
36833;SDS011;48003;52.084;5.224;2022-08-11T14:26:22;2.8;;;1.7;;
36833;SDS011;48003;52.084;5.224;2022-08-11T14:28:09;4.8;;;1.5;;
36833;SDS011;48003;52.084;5.224;2022-08-11T14:29:56;3.8;;;1.7;;
36833;SDS011;48003;52.084;5.224;2022-08-11T14:31:45;3.0;;;1.7;;
36833;SDS011;48003;52.084;5.224;2022-08-11T14:33:34;2.5;;;1.5;;
36833;SDS011;48003;52.084;5.224;2022-08-11T14:35:23;4.3;;;1.8;;
36833;SDS011;48003;52.084;5.224;2022-08-11T14:39:05;2.8;;;1.5;;
36833;SDS011;48003;52.084;5.224;2022-08-11T14:47:39;3.9;;;1.6;;
36833;SDS011;48003;52.084;5.224;2022-08-11T14:49:27;5.0;;;1.5;;
36833;SDS011;48003;52.084;5.224;2022-08-11T14:51:14;1.5;;;1.4;;
36833;SDS011;48003;52.084;5.224;2022-08-11T14:53:04;5.7;;;1.7;;
36833;SDS011;48003;52.084;5.224;2022-08-11T14:58:38;2.31;;;1.4;;
36833;SDS011;48003;52.084;5.224;2022-08-11T15:00:27;5.3;;;1.6;;
36833;SDS011;48003;52.084;5.224;2022-08-11T15:05:09;4.2;;;1.6;;
36833;SDS011;48003;52.084;5.224;2022-08-11T15:06:56;4.91;;;1.8;;
36833;SDS011;48003;52.084;5.224;2022-08-11T15:08:59;2.6;;;1.6;;
36833;SDS011;48003;52.084;5.224;2022-08-11T15:10:46;3.7;;;1.5;;
36833;SDS011;48003;52.084;5.224;2022-08-11T15:18:11;3.3;;;1.6;;
36833;SDS011;48003;52.084;5.224;2022-08-11T15:24:24;5.4;;;1.9;;
36833;SDS011;48003;52.084;5.224;2022-08-11T15:26:12;3.7;;;1.8;;
36833;SDS011;48003;52.084;5.224;2022-08-11T15:38:35;5.2;;;1.9;;
36833;SDS011;48003;52.084;5.224;2022-08-11T15:46:34;3.2;;;1.5;;
36833;SDS011;48003;52.084;5.224;2022-08-11T15:48:29;3.6;;;1.4;;
36833;SDS011;48003;52.084;5.224;2022-08-11T15:50:29;2.7;;;1.5;;
36833;SDS011;48003;52.084;5.224;2022-08-11T15:54:10;3.6;;;1.9;;
36833;SDS011;48003;52.084;5.224;2022-08-11T15:56:00;2.8;;;1.4;;
36833;SDS011;48003;52.084;5.224;2022-08-11T16:04:34;3.1;;;1.6;;
36833;SDS011;48003;52.084;5.224;2022-08-11T16:06:22;3.6;;;1.6;;
36833;SDS011;48003;52.084;5.224;2022-08-11T16:08:12;3.8;;;1.6;;
36833;SDS011;48003;52.084;5.224;2022-08-11T16:10:04;4.61;;;1.6;;
36833;SDS011;48003;52.084;5.224;2022-08-11T16:11:53;4.2;;;1.7;;
36833;SDS011;48003;52.084;5.224;2022-08-11T16:16:48;2.9;;;1.5;;
36833;SDS011;48003;52.084;5.224;2022-08-11T16:18:40;3.0;;;1.4;;
36833;SDS011;48003;52.084;5.224;2022-08-11T16:20:30;5.2;;;1.6;;
36833;SDS011;48003;52.084;5.224;2022-08-11T16:22:21;2.31;;;1.5;;
36833;SDS011;48003;52.084;5.224;2022-08-11T16:24:13;2.6;;;1.5;;
36833;SDS011;48003;52.084;5.224;2022-08-11T16:26:02;3.2;;;1.6;;
36833;SDS011;48003;52.084;5.224;2022-08-11T16:29:46;3.0;;;1.5;;
36833;SDS011;48003;52.084;5.224;2022-08-11T16:31:37;6.4;;;1.5;;
36833;SDS011;48003;52.084;5.224;2022-08-11T16:33:27;2.8;;;1.7;;
36833;SDS011;48003;52.084;5.224;2022-08-11T16:38:34;2.31;;;1.5;;
36833;SDS011;48003;52.084;5.224;2022-08-11T16:40:25;5.9;;;1.9;;
36833;SDS011;48003;52.084;5.224;2022-08-11T16:49:05;2.9;;;1.8;;
36833;SDS011;48003;52.084;5.224;2022-08-11T16:52:57;3.0;;;1.5;;
36833;SDS011;48003;52.084;5.224;2022-08-11T16:54:46;3.6;;;1.6;;
36833;SDS011;48003;52.084;5.224;2022-08-11T16:56:35;3.5;;;1.9;;
36833;SDS011;48003;52.084;5.224;2022-08-11T16:59:30;2.5;;;1.5;;
36833;SDS011;48003;52.084;5.224;2022-08-11T17:01:21;4.0;;;1.5;;
36833;SDS011;48003;52.084;5.224;2022-08-11T17:13:08;3.0;;;1.8;;
36833;SDS011;48003;52.084;5.224;2022-08-11T17:14:57;4.61;;;3.3;;
36833;SDS011;48003;52.084;5.224;2022-08-11T17:16:48;9.0;;;5.11;;
36833;SDS011;48003;52.084;5.224;2022-08-11T17:18:41;2.6;;;1.6;;
36833;SDS011;48003;52.084;5.224;2022-08-11T17:20:33;2.8;;;1.5;;
36833;SDS011;48003;52.084;5.224;2022-08-11T17:25:24;5.2;;;1.6;;
36833;SDS011;48003;52.084;5.224;2022-08-11T17:27:15;3.0;;;1.6;;
36833;SDS011;48003;52.084;5.224;2022-08-11T17:35:46;2.31;;;1.7;;
36833;SDS011;48003;52.084;5.224;2022-08-11T17:37:34;3.6;;;2.0;;
36833;SDS011;48003;52.084;5.224;2022-08-11T17:39:23;3.1;;;1.5;;
36833;SDS011;48003;52.084;5.224;2022-08-11T17:51:05;2.8;;;1.3;;
36833;SDS011;48003;52.084;5.224;2022-08-11T18:00:06;3.1;;;1.9;;
36833;SDS011;48003;52.084;5.224;2022-08-11T18:01:55;3.1;;;1.7;;
36833;SDS011;48003;52.084;5.224;2022-08-11T18:03:46;3.6;;;1.4;;
36833;SDS011;48003;52.084;5.224;2022-08-11T18:05:35;3.3;;;1.4;;
